<?xml version="1.0" encoding="UTF-8"?>
<gpx xmlns:xsi="http://www.w3.org/2001/XMLSchema-instance" xmlns="http://www.topografix.com/GPX/1/1" xsi:schemaLocation="http://www.topografix.com/GPX/1/1 http://www.topografix.com/GPX/1/1/gpx.xsd" version="1.1">
  <metadata>
    <name>STTC Summer Tri-Series &amp; KBR Bike Route</name>
    <copyright author="OpenStreetMap contributors">
      <year>2020</year>
      <license>https://www.openstreetmap.org/copyright</license>
    </copyright>
    <link href="https://www.strava.com/routes/7528886"/>
  </metadata>
  <trk>
    <name>STTC Summer Tri-Series &amp; KBR Bike Route</name>
    <link href="https://www.strava.com/routes/7528886"/>
    <type>Radfahrt</type>
    <trkseg>
      <trkpt lat="42.345171" lon="-79.311982">
        <ele>402.520001</ele>
        <time>2021-09-01T08:08:00.000Z</time>
      </trkpt>
      <trkpt lat="42.3445200005" lon="-79.3116499966">
        <ele>402.139993</ele>
        <time>2021-09-01T08:08:08.000Z</time>
      </trkpt>
      <trkpt lat="42.343865" lon="-79.311328">
        <ele>403.599998</ele>
        <time>2021-09-01T08:08:16.000Z</time>
      </trkpt>
      <trkpt lat="42.343662" lon="-79.311142">
        <ele>404.079997</ele>
        <time>2021-09-01T08:08:19.000Z</time>
      </trkpt>
      <trkpt lat="42.343409" lon="-79.311582">
        <ele>401.839993</ele>
        <time>2021-09-01T08:08:24.000Z</time>
      </trkpt>
      <trkpt lat="42.343406" lon="-79.311596">
        <ele>401.809995</ele>
        <time>2021-09-01T08:08:24.000Z</time>
      </trkpt>
      <trkpt lat="42.3430430014" lon="-79.3121490031">
        <ele>399.64</ele>
        <time>2021-09-01T08:08:30.000Z</time>
      </trkpt>
      <trkpt lat="42.342671" lon="-79.312698">
        <ele>399.349996</ele>
        <time>2021-09-01T08:08:36.000Z</time>
      </trkpt>
      <trkpt lat="42.3423220011" lon="-79.3131940028">
        <ele>399.690007</ele>
        <time>2021-09-01T08:08:42.000Z</time>
      </trkpt>
      <trkpt lat="42.341961" lon="-79.313702">
        <ele>399.679995</ele>
        <time>2021-09-01T08:08:48.000Z</time>
      </trkpt>
      <trkpt lat="42.3413780033" lon="-79.3145710082">
        <ele>399.420001</ele>
        <time>2021-09-01T08:08:58.000Z</time>
      </trkpt>
      <trkpt lat="42.340786" lon="-79.315426">
        <ele>400.759991</ele>
        <time>2021-09-01T08:09:08.000Z</time>
      </trkpt>
      <trkpt lat="42.3403940015" lon="-79.3160260036">
        <ele>401.489992</ele>
        <time>2021-09-01T08:09:15.000Z</time>
      </trkpt>
      <trkpt lat="42.340004" lon="-79.31661">
        <ele>401.969997</ele>
        <time>2021-09-01T08:09:21.000Z</time>
      </trkpt>
      <trkpt lat="42.3394453486" lon="-79.3174473708">
        <ele>402.009991</ele>
        <time>2021-09-01T08:09:30.000Z</time>
      </trkpt>
      <trkpt lat="42.3388676911" lon="-79.3182827266">
        <ele>401.830007</ele>
        <time>2021-09-01T08:09:39.000Z</time>
      </trkpt>
      <trkpt lat="42.3383140275" lon="-79.3191260674">
        <ele>401.350003</ele>
        <time>2021-09-01T08:09:48.000Z</time>
      </trkpt>
      <trkpt lat="42.3377573577" lon="-79.3199643933">
        <ele>400.220002</ele>
        <time>2021-09-01T08:09:57.000Z</time>
      </trkpt>
      <trkpt lat="42.3371876819" lon="-79.3207967041">
        <ele>399.009997</ele>
        <time>2021-09-01T08:10:06.000Z</time>
      </trkpt>
      <trkpt lat="42.336638" lon="-79.321632">
        <ele>398.760004</ele>
        <time>2021-09-01T08:10:15.000Z</time>
      </trkpt>
      <trkpt lat="42.336277001" lon="-79.3221260028">
        <ele>399.720007</ele>
        <time>2021-09-01T08:10:21.000Z</time>
      </trkpt>
      <trkpt lat="42.335939" lon="-79.322617">
        <ele>402.280004</ele>
        <time>2021-09-01T08:10:27.000Z</time>
      </trkpt>
      <trkpt lat="42.335662" lon="-79.322938">
        <ele>403.59</ele>
        <time>2021-09-01T08:10:31.000Z</time>
      </trkpt>
      <trkpt lat="42.335501" lon="-79.323055">
        <ele>405.960005</ele>
        <time>2021-09-01T08:10:33.000Z</time>
      </trkpt>
      <trkpt lat="42.3359100006" lon="-79.323390998">
        <ele>406.820009</ele>
        <time>2021-09-01T08:10:38.000Z</time>
      </trkpt>
      <trkpt lat="42.336322" lon="-79.323719">
        <ele>406.310004</ele>
        <time>2021-09-01T08:10:43.000Z</time>
      </trkpt>
      <trkpt lat="42.337019001" lon="-79.3241869947">
        <ele>404.969997</ele>
        <time>2021-09-01T08:10:52.000Z</time>
      </trkpt>
      <trkpt lat="42.337699" lon="-79.324666">
        <ele>403.880007</ele>
        <time>2021-09-01T08:11:01.000Z</time>
      </trkpt>
      <trkpt lat="42.3384370027" lon="-79.3251284841">
        <ele>403.870009</ele>
        <time>2021-09-01T08:11:10.000Z</time>
      </trkpt>
      <trkpt lat="42.3391710035" lon="-79.3255729788">
        <ele>404.450002</ele>
        <time>2021-09-01T08:11:19.000Z</time>
      </trkpt>
      <trkpt lat="42.3399030026" lon="-79.3260234841">
        <ele>405.679998</ele>
        <time>2021-09-01T08:11:28.000Z</time>
      </trkpt>
      <trkpt lat="42.340645" lon="-79.326473">
        <ele>406.830001</ele>
        <time>2021-09-01T08:11:37.000Z</time>
      </trkpt>
      <trkpt lat="42.3412940018" lon="-79.3268454887">
        <ele>406.890008</ele>
        <time>2021-09-01T08:11:45.000Z</time>
      </trkpt>
      <trkpt lat="42.3419310024" lon="-79.3272149849">
        <ele>407.229999</ele>
        <time>2021-09-01T08:11:53.000Z</time>
      </trkpt>
      <trkpt lat="42.3425790018" lon="-79.3275834887">
        <ele>407.610007</ele>
        <time>2021-09-01T08:12:01.000Z</time>
      </trkpt>
      <trkpt lat="42.343219" lon="-79.327957">
        <ele>405.650002</ele>
        <time>2021-09-01T08:12:09.000Z</time>
      </trkpt>
      <trkpt lat="42.343577" lon="-79.328092">
        <ele>405.070008</ele>
        <time>2021-09-01T08:12:13.000Z</time>
      </trkpt>
      <trkpt lat="42.3440490001" lon="-79.328218999">
        <ele>405.239994</ele>
        <time>2021-09-01T08:12:18.000Z</time>
      </trkpt>
      <trkpt lat="42.344505" lon="-79.328357">
        <ele>405.69</ele>
        <time>2021-09-01T08:12:23.000Z</time>
      </trkpt>
      <trkpt lat="42.345274334" lon="-79.328532323">
        <ele>405.65</ele>
        <time>2021-09-01T08:12:32.000Z</time>
      </trkpt>
      <trkpt lat="42.3460606677" lon="-79.3286936501">
        <ele>406.080002</ele>
        <time>2021-09-01T08:12:41.000Z</time>
      </trkpt>
      <trkpt lat="42.3468260011" lon="-79.3288619814">
        <ele>404.939991</ele>
        <time>2021-09-01T08:12:50.000Z</time>
      </trkpt>
      <trkpt lat="42.3476113343" lon="-79.3290243168">
        <ele>404.390006</ele>
        <time>2021-09-01T08:12:59.000Z</time>
      </trkpt>
      <trkpt lat="42.3483846673" lon="-79.3292006563">
        <ele>405.479998</ele>
        <time>2021-09-01T08:13:08.000Z</time>
      </trkpt>
      <trkpt lat="42.349158" lon="-79.329363">
        <ele>406.139996</ele>
        <time>2021-09-01T08:13:17.000Z</time>
      </trkpt>
      <trkpt lat="42.3497090002" lon="-79.3294949989">
        <ele>406.580003</ele>
        <time>2021-09-01T08:13:23.000Z</time>
      </trkpt>
      <trkpt lat="42.350258" lon="-79.329625">
        <ele>405.919991</ele>
        <time>2021-09-01T08:13:29.000Z</time>
      </trkpt>
      <trkpt lat="42.3508926669" lon="-79.3297636642">
        <ele>404.899996</ele>
        <time>2021-09-01T08:13:36.000Z</time>
      </trkpt>
      <trkpt lat="42.3515153336" lon="-79.3298913308">
        <ele>405.920008</ele>
        <time>2021-09-01T08:13:43.000Z</time>
      </trkpt>
      <trkpt lat="42.352141" lon="-79.330005">
        <ele>407.120004</ele>
        <time>2021-09-01T08:13:50.000Z</time>
      </trkpt>
      <trkpt lat="42.352747" lon="-79.330088">
        <ele>407.750009</ele>
        <time>2021-09-01T08:13:57.000Z</time>
      </trkpt>
      <trkpt lat="42.353394" lon="-79.330094">
        <ele>407.600008</ele>
        <time>2021-09-01T08:14:04.000Z</time>
      </trkpt>
      <trkpt lat="42.353383" lon="-79.330089">
        <ele>407.599993</ele>
        <time>2021-09-01T08:14:04.000Z</time>
      </trkpt>
      <trkpt lat="42.354213" lon="-79.33006">
        <ele>406.930005</ele>
        <time>2021-09-01T08:14:13.000Z</time>
      </trkpt>
      <trkpt lat="42.3549476668" lon="-79.3299940016">
        <ele>406.979999</ele>
        <time>2021-09-01T08:14:21.000Z</time>
      </trkpt>
      <trkpt lat="42.3556813335" lon="-79.3299150016">
        <ele>407.439991</ele>
        <time>2021-09-01T08:14:29.000Z</time>
      </trkpt>
      <trkpt lat="42.356396" lon="-79.329843">
        <ele>408.259996</ele>
        <time>2021-09-01T08:14:37.000Z</time>
      </trkpt>
      <trkpt lat="42.357281" lon="-79.329784">
        <ele>407.780005</ele>
        <time>2021-09-01T08:14:47.000Z</time>
      </trkpt>
      <trkpt lat="42.3580951429" lon="-79.3297250039">
        <ele>407.06</ele>
        <time>2021-09-01T08:14:56.000Z</time>
      </trkpt>
      <trkpt lat="42.3588872858" lon="-79.3296770064">
        <ele>406.989991</ele>
        <time>2021-09-01T08:15:05.000Z</time>
      </trkpt>
      <trkpt lat="42.3596974287" lon="-79.3296340077">
        <ele>407.390005</ele>
        <time>2021-09-01T08:15:14.000Z</time>
      </trkpt>
      <trkpt lat="42.3605065716" lon="-79.3295730077">
        <ele>405.820002</ele>
        <time>2021-09-01T08:15:23.000Z</time>
      </trkpt>
      <trkpt lat="42.3613087144" lon="-79.3295370064">
        <ele>404.739992</ele>
        <time>2021-09-01T08:15:32.000Z</time>
      </trkpt>
      <trkpt lat="42.3621158572" lon="-79.3294820039">
        <ele>406.410001</ele>
        <time>2021-09-01T08:15:41.000Z</time>
      </trkpt>
      <trkpt lat="42.362921" lon="-79.329431">
        <ele>407.409995</ele>
        <time>2021-09-01T08:15:50.000Z</time>
      </trkpt>
      <trkpt lat="42.363115" lon="-79.329384">
        <ele>407.05</ele>
        <time>2021-09-01T08:15:52.000Z</time>
      </trkpt>
      <trkpt lat="42.363398" lon="-79.329339">
        <ele>405.160006</ele>
        <time>2021-09-01T08:15:55.000Z</time>
      </trkpt>
      <trkpt lat="42.364113" lon="-79.329113">
        <ele>401.500007</ele>
        <time>2021-09-01T08:16:03.000Z</time>
      </trkpt>
      <trkpt lat="42.364814" lon="-79.328871">
        <ele>400.720002</ele>
        <time>2021-09-01T08:16:11.000Z</time>
      </trkpt>
      <trkpt lat="42.365698" lon="-79.328697">
        <ele>400.09</ele>
        <time>2021-09-01T08:16:21.000Z</time>
      </trkpt>
      <trkpt lat="42.366136" lon="-79.328532">
        <ele>399.670007</ele>
        <time>2021-09-01T08:16:26.000Z</time>
      </trkpt>
      <trkpt lat="42.366705334" lon="-79.328263005">
        <ele>400.539993</ele>
        <time>2021-09-01T08:16:33.000Z</time>
      </trkpt>
      <trkpt lat="42.3672956673" lon="-79.327982005">
        <ele>402.160007</ele>
        <time>2021-09-01T08:16:40.000Z</time>
      </trkpt>
      <trkpt lat="42.367885" lon="-79.32772">
        <ele>401.989991</ele>
        <time>2021-09-01T08:16:47.000Z</time>
      </trkpt>
      <trkpt lat="42.368182" lon="-79.327499">
        <ele>399.99</ele>
        <time>2021-09-01T08:16:51.000Z</time>
      </trkpt>
      <trkpt lat="42.3687550008" lon="-79.3270760038">
        <ele>394.300002</ele>
        <time>2021-09-01T08:16:58.000Z</time>
      </trkpt>
      <trkpt lat="42.369313" lon="-79.326649">
        <ele>389.569999</ele>
        <time>2021-09-01T08:17:05.000Z</time>
      </trkpt>
      <trkpt lat="42.369916" lon="-79.326198">
        <ele>385.769994</ele>
        <time>2021-09-01T08:17:13.000Z</time>
      </trkpt>
      <trkpt lat="42.3705010005" lon="-79.3258110035">
        <ele>379.709996</ele>
        <time>2021-09-01T08:17:20.000Z</time>
      </trkpt>
      <trkpt lat="42.371079" lon="-79.325431">
        <ele>373.860004</ele>
        <time>2021-09-01T08:17:27.000Z</time>
      </trkpt>
      <trkpt lat="42.371321" lon="-79.325205">
        <ele>370.730007</ele>
        <time>2021-09-01T08:17:30.000Z</time>
      </trkpt>
      <trkpt lat="42.371438" lon="-79.325033">
        <ele>369.570005</ele>
        <time>2021-09-01T08:17:32.000Z</time>
      </trkpt>
      <trkpt lat="42.371599" lon="-79.324777">
        <ele>368.009992</ele>
        <time>2021-09-01T08:17:35.000Z</time>
      </trkpt>
      <trkpt lat="42.3718923382" lon="-79.324026007">
        <ele>366.210002</ele>
        <time>2021-09-01T08:17:42.000Z</time>
      </trkpt>
      <trkpt lat="42.3721726715" lon="-79.3232690071">
        <ele>365.920005</ele>
        <time>2021-09-01T08:17:49.000Z</time>
      </trkpt>
      <trkpt lat="42.372467" lon="-79.322519">
        <ele>366.819992</ele>
        <time>2021-09-01T08:17:56.000Z</time>
      </trkpt>
      <trkpt lat="42.372609" lon="-79.322269">
        <ele>368.379997</ele>
        <time>2021-09-01T08:17:59.000Z</time>
      </trkpt>
      <trkpt lat="42.372922" lon="-79.321948">
        <ele>369.040006</ele>
        <time>2021-09-01T08:18:03.000Z</time>
      </trkpt>
      <trkpt lat="42.373399" lon="-79.321639">
        <ele>368.780001</ele>
        <time>2021-09-01T08:18:09.000Z</time>
      </trkpt>
      <trkpt lat="42.3739270003" lon="-79.3213660023">
        <ele>368.890004</ele>
        <time>2021-09-01T08:18:15.000Z</time>
      </trkpt>
      <trkpt lat="42.374453" lon="-79.321091">
        <ele>369.490007</ele>
        <time>2021-09-01T08:18:21.000Z</time>
      </trkpt>
      <trkpt lat="42.374632" lon="-79.321039">
        <ele>369.679997</ele>
        <time>2021-09-01T08:18:23.000Z</time>
      </trkpt>
      <trkpt lat="42.374991" lon="-79.321144">
        <ele>368.919994</ele>
        <time>2021-09-01T08:18:27.000Z</time>
      </trkpt>
      <trkpt lat="42.375403" lon="-79.32142">
        <ele>369.049993</ele>
        <time>2021-09-01T08:18:32.000Z</time>
      </trkpt>
      <trkpt lat="42.375888" lon="-79.321857">
        <ele>373.17</ele>
        <time>2021-09-01T08:18:38.000Z</time>
      </trkpt>
      <trkpt lat="42.376005" lon="-79.321989">
        <ele>377.449997</ele>
        <time>2021-09-01T08:18:40.000Z</time>
      </trkpt>
      <trkpt lat="42.376182" lon="-79.322266">
        <ele>380.47</ele>
        <time>2021-09-01T08:18:43.000Z</time>
      </trkpt>
      <trkpt lat="42.376314" lon="-79.322481">
        <ele>382.600008</ele>
        <time>2021-09-01T08:18:45.000Z</time>
      </trkpt>
      <trkpt lat="42.376745" lon="-79.323373">
        <ele>386.100003</ele>
        <time>2021-09-01T08:18:54.000Z</time>
      </trkpt>
      <trkpt lat="42.377008" lon="-79.323647">
        <ele>387.590009</ele>
        <time>2021-09-01T08:18:58.000Z</time>
      </trkpt>
      <trkpt lat="42.377649" lon="-79.324137">
        <ele>391.379997</ele>
        <time>2021-09-01T08:19:06.000Z</time>
      </trkpt>
      <trkpt lat="42.377866" lon="-79.324275">
        <ele>391.609991</ele>
        <time>2021-09-01T08:19:09.000Z</time>
      </trkpt>
      <trkpt lat="42.3785320005" lon="-79.3246029963">
        <ele>390.899994</ele>
        <time>2021-09-01T08:19:17.000Z</time>
      </trkpt>
      <trkpt lat="42.379202" lon="-79.324948">
        <ele>389.360008</ele>
        <time>2021-09-01T08:19:25.000Z</time>
      </trkpt>
      <trkpt lat="42.37942" lon="-79.32496">
        <ele>389.130004</ele>
        <time>2021-09-01T08:19:27.000Z</time>
      </trkpt>
      <trkpt lat="42.379862" lon="-79.324953">
        <ele>390.799994</ele>
        <time>2021-09-01T08:19:32.000Z</time>
      </trkpt>
      <trkpt lat="42.3805686666" lon="-79.3249490005">
        <ele>392.619997</ele>
        <time>2021-09-01T08:19:40.000Z</time>
      </trkpt>
      <trkpt lat="42.3812773332" lon="-79.3249170005">
        <ele>391.060006</ele>
        <time>2021-09-01T08:19:48.000Z</time>
      </trkpt>
      <trkpt lat="42.381989" lon="-79.324897">
        <ele>391.289991</ele>
        <time>2021-09-01T08:19:56.000Z</time>
      </trkpt>
      <trkpt lat="42.382474" lon="-79.324834">
        <ele>390.029993</ele>
        <time>2021-09-01T08:20:01.000Z</time>
      </trkpt>
      <trkpt lat="42.3830479999" lon="-79.3247740005">
        <ele>385.789993</ele>
        <time>2021-09-01T08:20:07.000Z</time>
      </trkpt>
      <trkpt lat="42.383648" lon="-79.324724">
        <ele>379.72</ele>
        <time>2021-09-01T08:20:14.000Z</time>
      </trkpt>
      <trkpt lat="42.384266" lon="-79.3247919993">
        <ele>375.700001</ele>
        <time>2021-09-01T08:20:21.000Z</time>
      </trkpt>
      <trkpt lat="42.384898" lon="-79.324854">
        <ele>380.599998</ele>
        <time>2021-09-01T08:20:28.000Z</time>
      </trkpt>
      <trkpt lat="42.385694" lon="-79.3248510001">
        <ele>384.909999</ele>
        <time>2021-09-01T08:20:37.000Z</time>
      </trkpt>
      <trkpt lat="42.386496" lon="-79.3248500002">
        <ele>383.109993</ele>
        <time>2021-09-01T08:20:46.000Z</time>
      </trkpt>
      <trkpt lat="42.387293" lon="-79.3248520002">
        <ele>378.869997</ele>
        <time>2021-09-01T08:20:55.000Z</time>
      </trkpt>
      <trkpt lat="42.388089" lon="-79.3248550001">
        <ele>375.930002</ele>
        <time>2021-09-01T08:21:04.000Z</time>
      </trkpt>
      <trkpt lat="42.388874" lon="-79.324858">
        <ele>375.120009</ele>
        <time>2021-09-01T08:21:13.000Z</time>
      </trkpt>
      <trkpt lat="42.3896897143" lon="-79.3248315723">
        <ele>377.030005</ele>
        <time>2021-09-01T08:21:22.000Z</time>
      </trkpt>
      <trkpt lat="42.3905184286" lon="-79.3248311443">
        <ele>380.699993</ele>
        <time>2021-09-01T08:21:31.000Z</time>
      </trkpt>
      <trkpt lat="42.3913291429" lon="-79.3248127161">
        <ele>380.819992</ele>
        <time>2021-09-01T08:21:40.000Z</time>
      </trkpt>
      <trkpt lat="42.3921418572" lon="-79.3248042875">
        <ele>379.830005</ele>
        <time>2021-09-01T08:21:49.000Z</time>
      </trkpt>
      <trkpt lat="42.3929495715" lon="-79.3248008586">
        <ele>381.669992</ele>
        <time>2021-09-01T08:21:58.000Z</time>
      </trkpt>
      <trkpt lat="42.3937832857" lon="-79.3247904295">
        <ele>383.639993</ele>
        <time>2021-09-01T08:22:07.000Z</time>
      </trkpt>
      <trkpt lat="42.394593" lon="-79.324775">
        <ele>380.100005</ele>
        <time>2021-09-01T08:22:16.000Z</time>
      </trkpt>
      <trkpt lat="42.395337" lon="-79.324728">
        <ele>377.909994</ele>
        <time>2021-09-01T08:22:24.000Z</time>
      </trkpt>
      <trkpt lat="42.395784" lon="-79.32472">
        <ele>377.390001</ele>
        <time>2021-09-01T08:22:29.000Z</time>
      </trkpt>
      <trkpt lat="42.396336" lon="-79.323819">
        <ele>372.089995</ele>
        <time>2021-09-01T08:22:39.000Z</time>
      </trkpt>
      <trkpt lat="42.396328" lon="-79.323817">
        <ele>372.129996</ele>
        <time>2021-09-01T08:22:39.000Z</time>
      </trkpt>
      <trkpt lat="42.396662" lon="-79.323285">
        <ele>368.99</ele>
        <time>2021-09-01T08:22:45.000Z</time>
      </trkpt>
      <trkpt lat="42.3969910011" lon="-79.3228130022">
        <ele>366.76</ele>
        <time>2021-09-01T08:22:50.000Z</time>
      </trkpt>
      <trkpt lat="42.397317" lon="-79.32234">
        <ele>363.430008</ele>
        <time>2021-09-01T08:22:55.000Z</time>
      </trkpt>
      <trkpt lat="42.3977650022" lon="-79.321638005">
        <ele>357.530001</ele>
        <time>2021-09-01T08:23:03.000Z</time>
      </trkpt>
      <trkpt lat="42.398201" lon="-79.320937">
        <ele>352.279998</ele>
        <time>2021-09-01T08:23:11.000Z</time>
      </trkpt>
      <trkpt lat="42.398484" lon="-79.3206">
        <ele>348.430005</ele>
        <time>2021-09-01T08:23:15.000Z</time>
      </trkpt>
      <trkpt lat="42.398803" lon="-79.320258">
        <ele>346.010006</ele>
        <time>2021-09-01T08:23:20.000Z</time>
      </trkpt>
      <trkpt lat="42.3994035035" lon="-79.3197230154">
        <ele>341.469995</ele>
        <time>2021-09-01T08:23:28.000Z</time>
      </trkpt>
      <trkpt lat="42.4000280047" lon="-79.3192080206">
        <ele>335.710005</ele>
        <time>2021-09-01T08:23:36.000Z</time>
      </trkpt>
      <trkpt lat="42.4006435035" lon="-79.3186840155">
        <ele>333.310003</ele>
        <time>2021-09-01T08:23:44.000Z</time>
      </trkpt>
      <trkpt lat="42.401245" lon="-79.318153">
        <ele>332.710004</ele>
        <time>2021-09-01T08:23:52.000Z</time>
      </trkpt>
      <trkpt lat="42.402023" lon="-79.317569">
        <ele>331.149996</ele>
        <time>2021-09-01T08:24:02.000Z</time>
      </trkpt>
      <trkpt lat="42.402564" lon="-79.317218">
        <ele>328.400005</ele>
        <time>2021-09-01T08:24:09.000Z</time>
      </trkpt>
      <trkpt lat="42.4033524329" lon="-79.316796031">
        <ele>325.890006</ele>
        <time>2021-09-01T08:24:18.000Z</time>
      </trkpt>
      <trkpt lat="42.4041518644" lon="-79.3163860517">
        <ele>324.299993</ele>
        <time>2021-09-01T08:24:28.000Z</time>
      </trkpt>
      <trkpt lat="42.4049502945" lon="-79.3159740621">
        <ele>321.899993</ele>
        <time>2021-09-01T08:24:38.000Z</time>
      </trkpt>
      <trkpt lat="42.405743723" lon="-79.3155720621">
        <ele>319.510007</ele>
        <time>2021-09-01T08:24:47.000Z</time>
      </trkpt>
      <trkpt lat="42.4065291501" lon="-79.3151690517">
        <ele>314.940007</ele>
        <time>2021-09-01T08:24:56.000Z</time>
      </trkpt>
      <trkpt lat="42.4073255758" lon="-79.3147420311">
        <ele>310.310001</ele>
        <time>2021-09-01T08:25:06.000Z</time>
      </trkpt>
      <trkpt lat="42.408105" lon="-79.314339">
        <ele>306.64</ele>
        <time>2021-09-01T08:25:15.000Z</time>
      </trkpt>
      <trkpt lat="42.408521" lon="-79.314165">
        <ele>305.390006</ele>
        <time>2021-09-01T08:25:20.000Z</time>
      </trkpt>
      <trkpt lat="42.4093326672" lon="-79.3139270062">
        <ele>299.99</ele>
        <time>2021-09-01T08:25:29.000Z</time>
      </trkpt>
      <trkpt lat="42.4101393338" lon="-79.3136820062">
        <ele>295.559994</ele>
        <time>2021-09-01T08:25:38.000Z</time>
      </trkpt>
      <trkpt lat="42.410931" lon="-79.313438">
        <ele>291.720004</ele>
        <time>2021-09-01T08:25:47.000Z</time>
      </trkpt>
      <trkpt lat="42.4116090001" lon="-79.3132700019">
        <ele>290.389998</ele>
        <time>2021-09-01T08:25:55.000Z</time>
      </trkpt>
      <trkpt lat="42.412277" lon="-79.313086">
        <ele>288.490004</ele>
        <time>2021-09-01T08:26:03.000Z</time>
      </trkpt>
      <trkpt lat="42.412877" lon="-79.312954">
        <ele>286.990003</ele>
        <time>2021-09-01T08:26:10.000Z</time>
      </trkpt>
      <trkpt lat="42.4136283337" lon="-79.3128290078">
        <ele>282.110006</ele>
        <time>2021-09-01T08:26:18.000Z</time>
      </trkpt>
      <trkpt lat="42.4143706672" lon="-79.3126980125">
        <ele>276.77</ele>
        <time>2021-09-01T08:26:26.000Z</time>
      </trkpt>
      <trkpt lat="42.4151380006" lon="-79.3125760141">
        <ele>273.969991</ele>
        <time>2021-09-01T08:26:35.000Z</time>
      </trkpt>
      <trkpt lat="42.4158743339" lon="-79.3124350125">
        <ele>270.759996</ele>
        <time>2021-09-01T08:26:43.000Z</time>
      </trkpt>
      <trkpt lat="42.416630667" lon="-79.3123060078">
        <ele>267.000002</ele>
        <time>2021-09-01T08:26:51.000Z</time>
      </trkpt>
      <trkpt lat="42.417382" lon="-79.312187">
        <ele>265.069991</ele>
        <time>2021-09-01T08:26:59.000Z</time>
      </trkpt>
      <trkpt lat="42.4181976668" lon="-79.3120580034">
        <ele>263.309995</ele>
        <time>2021-09-01T08:27:08.000Z</time>
      </trkpt>
      <trkpt lat="42.4190153334" lon="-79.3119210034">
        <ele>262.079998</ele>
        <time>2021-09-01T08:27:17.000Z</time>
      </trkpt>
      <trkpt lat="42.419836" lon="-79.311793">
        <ele>261.519991</ele>
        <time>2021-09-01T08:27:26.000Z</time>
      </trkpt>
      <trkpt lat="42.420094" lon="-79.311777">
        <ele>261.679994</ele>
        <time>2021-09-01T08:27:29.000Z</time>
      </trkpt>
      <trkpt lat="42.420386" lon="-79.311803">
        <ele>261.590003</ele>
        <time>2021-09-01T08:27:32.000Z</time>
      </trkpt>
      <trkpt lat="42.420573" lon="-79.310835">
        <ele>255.350005</ele>
        <time>2021-09-01T08:27:40.000Z</time>
      </trkpt>
      <trkpt lat="42.420573" lon="-79.310854">
        <ele>255.549993</ele>
        <time>2021-09-01T08:27:40.000Z</time>
      </trkpt>
      <trkpt lat="42.420725" lon="-79.310084">
        <ele>251.17</ele>
        <time>2021-09-01T08:27:47.000Z</time>
      </trkpt>
      <trkpt lat="42.420911" lon="-79.309284">
        <ele>249.780003</ele>
        <time>2021-09-01T08:27:54.000Z</time>
      </trkpt>
      <trkpt lat="42.420473" lon="-79.309016">
        <ele>249.27</ele>
        <time>2021-09-01T08:27:59.000Z</time>
      </trkpt>
      <trkpt lat="42.4200580006" lon="-79.3086749979">
        <ele>249.170007</ele>
        <time>2021-09-01T08:28:04.000Z</time>
      </trkpt>
      <trkpt lat="42.419646" lon="-79.308349">
        <ele>249.510006</ele>
        <time>2021-09-01T08:28:09.000Z</time>
      </trkpt>
      <trkpt lat="42.4190370015" lon="-79.3077719945">
        <ele>251.559997</ele>
        <time>2021-09-01T08:28:17.000Z</time>
      </trkpt>
      <trkpt lat="42.418436" lon="-79.307192">
        <ele>253.200003</ele>
        <time>2021-09-01T08:28:25.000Z</time>
      </trkpt>
      <trkpt lat="42.4177760017" lon="-79.3065799936">
        <ele>254.160009</ele>
        <time>2021-09-01T08:28:34.000Z</time>
      </trkpt>
      <trkpt lat="42.417112" lon="-79.305974">
        <ele>254.980002</ele>
        <time>2021-09-01T08:28:43.000Z</time>
      </trkpt>
      <trkpt lat="42.416958" lon="-79.305781">
        <ele>255.819991</ele>
        <time>2021-09-01T08:28:45.000Z</time>
      </trkpt>
      <trkpt lat="42.416802" lon="-79.305492">
        <ele>256.199998</ele>
        <time>2021-09-01T08:28:48.000Z</time>
      </trkpt>
      <trkpt lat="42.416677" lon="-79.305117">
        <ele>256.460001</ele>
        <time>2021-09-01T08:28:51.000Z</time>
      </trkpt>
      <trkpt lat="42.416538" lon="-79.304808">
        <ele>256.539991</ele>
        <time>2021-09-01T08:28:54.000Z</time>
      </trkpt>
      <trkpt lat="42.415934" lon="-79.304691">
        <ele>256.619995</ele>
        <time>2021-09-01T08:29:01.000Z</time>
      </trkpt>
      <trkpt lat="42.415192" lon="-79.304664">
        <ele>255.759995</ele>
        <time>2021-09-01T08:29:09.000Z</time>
      </trkpt>
      <trkpt lat="42.4144630001" lon="-79.3047510026">
        <ele>255.779993</ele>
        <time>2021-09-01T08:29:17.000Z</time>
      </trkpt>
      <trkpt lat="42.4137260001" lon="-79.3048210035">
        <ele>256.509998</ele>
        <time>2021-09-01T08:29:25.000Z</time>
      </trkpt>
      <trkpt lat="42.4129960001" lon="-79.3048960026">
        <ele>257.399991</ele>
        <time>2021-09-01T08:29:33.000Z</time>
      </trkpt>
      <trkpt lat="42.412254" lon="-79.304969">
        <ele>257.790006</ele>
        <time>2021-09-01T08:29:41.000Z</time>
      </trkpt>
      <trkpt lat="42.411946" lon="-79.304989">
        <ele>257.899995</ele>
        <time>2021-09-01T08:29:44.000Z</time>
      </trkpt>
      <trkpt lat="42.411484" lon="-79.304933">
        <ele>257.570004</ele>
        <time>2021-09-01T08:29:49.000Z</time>
      </trkpt>
      <trkpt lat="42.410853" lon="-79.304755">
        <ele>257.469996</ele>
        <time>2021-09-01T08:29:56.000Z</time>
      </trkpt>
      <trkpt lat="42.4102246673" lon="-79.3045126616">
        <ele>257.399991</ele>
        <time>2021-09-01T08:30:03.000Z</time>
      </trkpt>
      <trkpt lat="42.409600334" lon="-79.3042503283">
        <ele>258.049997</ele>
        <time>2021-09-01T08:30:10.000Z</time>
      </trkpt>
      <trkpt lat="42.408977" lon="-79.303996">
        <ele>259.14</ele>
        <time>2021-09-01T08:30:17.000Z</time>
      </trkpt>
      <trkpt lat="42.408507" lon="-79.303828">
        <ele>259.599992</ele>
        <time>2021-09-01T08:30:22.000Z</time>
      </trkpt>
      <trkpt lat="42.408113" lon="-79.303732">
        <ele>260.049996</ele>
        <time>2021-09-01T08:30:26.000Z</time>
      </trkpt>
      <trkpt lat="42.407626" lon="-79.303683">
        <ele>260.830001</ele>
        <time>2021-09-01T08:30:31.000Z</time>
      </trkpt>
      <trkpt lat="42.406961" lon="-79.303678">
        <ele>261.479997</ele>
        <time>2021-09-01T08:30:38.000Z</time>
      </trkpt>
      <trkpt lat="42.40634" lon="-79.3037940011">
        <ele>262.730008</ele>
        <time>2021-09-01T08:30:45.000Z</time>
      </trkpt>
      <trkpt lat="42.405707" lon="-79.303892">
        <ele>264.449993</ele>
        <time>2021-09-01T08:30:52.000Z</time>
      </trkpt>
      <trkpt lat="42.405231" lon="-79.303965">
        <ele>266.339995</ele>
        <time>2021-09-01T08:30:57.000Z</time>
      </trkpt>
      <trkpt lat="42.405263" lon="-79.303946">
        <ele>266.250003</ele>
        <time>2021-09-01T08:30:57.000Z</time>
      </trkpt>
      <trkpt lat="42.404595" lon="-79.304045">
        <ele>267.550006</ele>
        <time>2021-09-01T08:31:04.000Z</time>
      </trkpt>
      <trkpt lat="42.4040240001" lon="-79.3040660002">
        <ele>267.960002</ele>
        <time>2021-09-01T08:31:10.000Z</time>
      </trkpt>
      <trkpt lat="42.403461" lon="-79.304097">
        <ele>268.660003</ele>
        <time>2021-09-01T08:31:16.000Z</time>
      </trkpt>
      <trkpt lat="42.402649" lon="-79.3040614991">
        <ele>269.69</ele>
        <time>2021-09-01T08:31:25.000Z</time>
      </trkpt>
      <trkpt lat="42.4018170001" lon="-79.3040499988">
        <ele>272.499999</ele>
        <time>2021-09-01T08:31:34.000Z</time>
      </trkpt>
      <trkpt lat="42.4010060001" lon="-79.3040204991">
        <ele>276.339992</ele>
        <time>2021-09-01T08:31:43.000Z</time>
      </trkpt>
      <trkpt lat="42.400181" lon="-79.304003">
        <ele>279.160006</ele>
        <time>2021-09-01T08:31:52.000Z</time>
      </trkpt>
      <trkpt lat="42.399827" lon="-79.303947">
        <ele>280.439991</ele>
        <time>2021-09-01T08:31:56.000Z</time>
      </trkpt>
      <trkpt lat="42.3993489999" lon="-79.3039209998">
        <ele>281.299994</ele>
        <time>2021-09-01T08:32:01.000Z</time>
      </trkpt>
      <trkpt lat="42.398892" lon="-79.303911">
        <ele>281.550007</ele>
        <time>2021-09-01T08:32:06.000Z</time>
      </trkpt>
      <trkpt lat="42.398452" lon="-79.303864">
        <ele>281.769998</ele>
        <time>2021-09-01T08:32:11.000Z</time>
      </trkpt>
      <trkpt lat="42.397578" lon="-79.303876">
        <ele>282.170001</ele>
        <time>2021-09-01T08:32:21.000Z</time>
      </trkpt>
      <trkpt lat="42.397139" lon="-79.303915">
        <ele>282.159996</ele>
        <time>2021-09-01T08:32:26.000Z</time>
      </trkpt>
      <trkpt lat="42.3966610001" lon="-79.3040010006">
        <ele>282.349991</ele>
        <time>2021-09-01T08:32:31.000Z</time>
      </trkpt>
      <trkpt lat="42.396163" lon="-79.304078">
        <ele>283.450005</ele>
        <time>2021-09-01T08:32:37.000Z</time>
      </trkpt>
      <trkpt lat="42.3953130001" lon="-79.3041760014">
        <ele>287.119995</ele>
        <time>2021-09-01T08:32:46.000Z</time>
      </trkpt>
      <trkpt lat="42.394468" lon="-79.304276">
        <ele>293.500001</ele>
        <time>2021-09-01T08:32:55.000Z</time>
      </trkpt>
      <trkpt lat="42.393729" lon="-79.304345">
        <ele>296.919996</ele>
        <time>2021-09-01T08:33:03.000Z</time>
      </trkpt>
      <trkpt lat="42.393296" lon="-79.304444">
        <ele>299.449998</ele>
        <time>2021-09-01T08:33:08.000Z</time>
      </trkpt>
      <trkpt lat="42.392864" lon="-79.304583">
        <ele>301.210004</ele>
        <time>2021-09-01T08:33:13.000Z</time>
      </trkpt>
      <trkpt lat="42.392643" lon="-79.304714">
        <ele>303.049996</ele>
        <time>2021-09-01T08:33:16.000Z</time>
      </trkpt>
      <trkpt lat="42.392288" lon="-79.304942">
        <ele>304.810004</ele>
        <time>2021-09-01T08:33:20.000Z</time>
      </trkpt>
      <trkpt lat="42.391624" lon="-79.30543">
        <ele>308.319991</ele>
        <time>2021-09-01T08:33:28.000Z</time>
      </trkpt>
      <trkpt lat="42.3909705033" lon="-79.3059275154">
        <ele>313.730003</ele>
        <time>2021-09-01T08:33:36.000Z</time>
      </trkpt>
      <trkpt lat="42.3903260044" lon="-79.3064430206">
        <ele>316.290007</ele>
        <time>2021-09-01T08:33:44.000Z</time>
      </trkpt>
      <trkpt lat="42.3896905033" lon="-79.3069455154">
        <ele>320.380004</ele>
        <time>2021-09-01T08:33:52.000Z</time>
      </trkpt>
      <trkpt lat="42.389047" lon="-79.307432">
        <ele>325.030005</ele>
        <time>2021-09-01T08:34:00.000Z</time>
      </trkpt>
      <trkpt lat="42.388483" lon="-79.307846">
        <ele>327.879995</ele>
        <time>2021-09-01T08:34:07.000Z</time>
      </trkpt>
      <trkpt lat="42.387993" lon="-79.308118">
        <ele>331.049999</ele>
        <time>2021-09-01T08:34:13.000Z</time>
      </trkpt>
      <trkpt lat="42.387232" lon="-79.308475">
        <ele>336.150009</ele>
        <time>2021-09-01T08:34:22.000Z</time>
      </trkpt>
      <trkpt lat="42.3866226672" lon="-79.3087233384">
        <ele>338.699998</ele>
        <time>2021-09-01T08:34:29.000Z</time>
      </trkpt>
      <trkpt lat="42.3860013339" lon="-79.3089816717">
        <ele>341.660001</ele>
        <time>2021-09-01T08:34:36.000Z</time>
      </trkpt>
      <trkpt lat="42.385365" lon="-79.309234">
        <ele>344.170005</ele>
        <time>2021-09-01T08:34:43.000Z</time>
      </trkpt>
      <trkpt lat="42.3846550019" lon="-79.3095580153">
        <ele>346.180007</ele>
        <time>2021-09-01T08:34:51.000Z</time>
      </trkpt>
      <trkpt lat="42.3839360029" lon="-79.309893023">
        <ele>347.460006</ele>
        <time>2021-09-01T08:34:59.000Z</time>
      </trkpt>
      <trkpt lat="42.3832130029" lon="-79.310237023">
        <ele>347.940002</ele>
        <time>2021-09-01T08:35:08.000Z</time>
      </trkpt>
      <trkpt lat="42.382486002" lon="-79.3105730153">
        <ele>348.629995</ele>
        <time>2021-09-01T08:35:17.000Z</time>
      </trkpt>
      <trkpt lat="42.381774" lon="-79.310904">
        <ele>349.379991</ele>
        <time>2021-09-01T08:35:25.000Z</time>
      </trkpt>
      <trkpt lat="42.380954" lon="-79.311193">
        <ele>349.920008</ele>
        <time>2021-09-01T08:35:34.000Z</time>
      </trkpt>
      <trkpt lat="42.380935" lon="-79.311208">
        <ele>349.929999</ele>
        <time>2021-09-01T08:35:34.000Z</time>
      </trkpt>
      <trkpt lat="42.380414" lon="-79.311391">
        <ele>351.09</ele>
        <time>2021-09-01T08:35:40.000Z</time>
      </trkpt>
      <trkpt lat="42.379714" lon="-79.311735">
        <ele>354.130001</ele>
        <time>2021-09-01T08:35:48.000Z</time>
      </trkpt>
      <trkpt lat="42.379072001" lon="-79.3120260088">
        <ele>356.079994</ele>
        <time>2021-09-01T08:35:56.000Z</time>
      </trkpt>
      <trkpt lat="42.3784040013" lon="-79.3122910117">
        <ele>358.85</ele>
        <time>2021-09-01T08:36:04.000Z</time>
      </trkpt>
      <trkpt lat="42.377757001" lon="-79.3125720088">
        <ele>360.530001</ele>
        <time>2021-09-01T08:36:12.000Z</time>
      </trkpt>
      <trkpt lat="42.377105" lon="-79.312863">
        <ele>363.270008</ele>
        <time>2021-09-01T08:36:20.000Z</time>
      </trkpt>
      <trkpt lat="42.376838" lon="-79.312945">
        <ele>364.109994</ele>
        <time>2021-09-01T08:36:23.000Z</time>
      </trkpt>
      <trkpt lat="42.376198" lon="-79.313213">
        <ele>367.000009</ele>
        <time>2021-09-01T08:36:30.000Z</time>
      </trkpt>
      <trkpt lat="42.375772" lon="-79.313433">
        <ele>369.310005</ele>
        <time>2021-09-01T08:36:35.000Z</time>
      </trkpt>
      <trkpt lat="42.375003" lon="-79.313807">
        <ele>371.770006</ele>
        <time>2021-09-01T08:36:44.000Z</time>
      </trkpt>
      <trkpt lat="42.374373" lon="-79.314053">
        <ele>373.689996</ele>
        <time>2021-09-01T08:36:51.000Z</time>
      </trkpt>
      <trkpt lat="42.373688" lon="-79.314224">
        <ele>376.480007</ele>
        <time>2021-09-01T08:36:59.000Z</time>
      </trkpt>
      <trkpt lat="42.372931" lon="-79.31438">
        <ele>379.549998</ele>
        <time>2021-09-01T08:37:08.000Z</time>
      </trkpt>
      <trkpt lat="42.372312" lon="-79.314389">
        <ele>380.989991</ele>
        <time>2021-09-01T08:37:15.000Z</time>
      </trkpt>
      <trkpt lat="42.37177" lon="-79.314381">
        <ele>382.269994</ele>
        <time>2021-09-01T08:37:21.000Z</time>
      </trkpt>
      <trkpt lat="42.3709410001" lon="-79.3141809973">
        <ele>384.2</ele>
        <time>2021-09-01T08:37:30.000Z</time>
      </trkpt>
      <trkpt lat="42.3701" lon="-79.313977">
        <ele>387.180002</ele>
        <time>2021-09-01T08:37:40.000Z</time>
      </trkpt>
      <trkpt lat="42.3694510003" lon="-79.3137859961">
        <ele>390.270005</ele>
        <time>2021-09-01T08:37:47.000Z</time>
      </trkpt>
      <trkpt lat="42.3687950003" lon="-79.3136069961">
        <ele>393.470001</ele>
        <time>2021-09-01T08:37:54.000Z</time>
      </trkpt>
      <trkpt lat="42.368158" lon="-79.31341">
        <ele>395.650005</ele>
        <time>2021-09-01T08:38:01.000Z</time>
      </trkpt>
      <trkpt lat="42.367271" lon="-79.313167">
        <ele>398.670007</ele>
        <time>2021-09-01T08:38:11.000Z</time>
      </trkpt>
      <trkpt lat="42.366772" lon="-79.312988">
        <ele>399.690006</ele>
        <time>2021-09-01T08:38:17.000Z</time>
      </trkpt>
      <trkpt lat="42.366223" lon="-79.312763">
        <ele>400.530008</ele>
        <time>2021-09-01T08:38:23.000Z</time>
      </trkpt>
      <trkpt lat="42.3656640004" lon="-79.3124829974">
        <ele>400.550004</ele>
        <time>2021-09-01T08:38:30.000Z</time>
      </trkpt>
      <trkpt lat="42.365099" lon="-79.312181">
        <ele>400.150004</ele>
        <time>2021-09-01T08:38:37.000Z</time>
      </trkpt>
      <trkpt lat="42.3645330003" lon="-79.3119429979">
        <ele>400.120006</ele>
        <time>2021-09-01T08:38:44.000Z</time>
      </trkpt>
      <trkpt lat="42.36398" lon="-79.311706">
        <ele>399.600003</ele>
        <time>2021-09-01T08:38:50.000Z</time>
      </trkpt>
      <trkpt lat="42.363547" lon="-79.31155">
        <ele>399.900002</ele>
        <time>2021-09-01T08:38:55.000Z</time>
      </trkpt>
      <trkpt lat="42.36306" lon="-79.311435">
        <ele>400.750005</ele>
        <time>2021-09-01T08:39:00.000Z</time>
      </trkpt>
      <trkpt lat="42.3622360001" lon="-79.3113079983">
        <ele>403.189995</ele>
        <time>2021-09-01T08:39:09.000Z</time>
      </trkpt>
      <trkpt lat="42.361406" lon="-79.311163">
        <ele>404.700003</ele>
        <time>2021-09-01T08:39:18.000Z</time>
      </trkpt>
      <trkpt lat="42.3608070002" lon="-79.3111309996">
        <ele>405.410001</ele>
        <time>2021-09-01T08:39:25.000Z</time>
      </trkpt>
      <trkpt lat="42.360201" lon="-79.31108">
        <ele>405.589994</ele>
        <time>2021-09-01T08:39:32.000Z</time>
      </trkpt>
      <trkpt lat="42.359858" lon="-79.311075">
        <ele>405.749992</ele>
        <time>2021-09-01T08:39:36.000Z</time>
      </trkpt>
      <trkpt lat="42.3592330001" lon="-79.3111210004">
        <ele>405.580008</ele>
        <time>2021-09-01T08:39:43.000Z</time>
      </trkpt>
      <trkpt lat="42.358617" lon="-79.311176">
        <ele>405.470002</ele>
        <time>2021-09-01T08:39:50.000Z</time>
      </trkpt>
      <trkpt lat="42.358333" lon="-79.31121">
        <ele>405.340009</ele>
        <time>2021-09-01T08:39:53.000Z</time>
      </trkpt>
      <trkpt lat="42.357787" lon="-79.311323001">
        <ele>405.170001</ele>
        <time>2021-09-01T08:39:59.000Z</time>
      </trkpt>
      <trkpt lat="42.35723" lon="-79.311424">
        <ele>404.660006</ele>
        <time>2021-09-01T08:40:05.000Z</time>
      </trkpt>
      <trkpt lat="42.356691" lon="-79.3115420009">
        <ele>404.369994</ele>
        <time>2021-09-01T08:40:11.000Z</time>
      </trkpt>
      <trkpt lat="42.356162" lon="-79.311655">
        <ele>404.079998</ele>
        <time>2021-09-01T08:40:17.000Z</time>
      </trkpt>
      <trkpt lat="42.355567" lon="-79.311742">
        <ele>403.77</ele>
        <time>2021-09-01T08:40:24.000Z</time>
      </trkpt>
      <trkpt lat="42.354895" lon="-79.311917">
        <ele>403.489991</ele>
        <time>2021-09-01T08:40:32.000Z</time>
      </trkpt>
      <trkpt lat="42.354492" lon="-79.311954">
        <ele>403.290005</ele>
        <time>2021-09-01T08:40:36.000Z</time>
      </trkpt>
      <trkpt lat="42.3540169999" lon="-79.3119730002">
        <ele>403.089997</ele>
        <time>2021-09-01T08:40:41.000Z</time>
      </trkpt>
      <trkpt lat="42.353514" lon="-79.312">
        <ele>402.890009</ele>
        <time>2021-09-01T08:40:47.000Z</time>
      </trkpt>
      <trkpt lat="42.352908" lon="-79.311926">
        <ele>402.78</ele>
        <time>2021-09-01T08:40:54.000Z</time>
      </trkpt>
      <trkpt lat="42.352368" lon="-79.311827">
        <ele>402.320005</ele>
        <time>2021-09-01T08:41:00.000Z</time>
      </trkpt>
      <trkpt lat="42.351612" lon="-79.311611">
        <ele>401.190004</ele>
        <time>2021-09-01T08:41:09.000Z</time>
      </trkpt>
      <trkpt lat="42.350996" lon="-79.311348">
        <ele>400.760002</ele>
        <time>2021-09-01T08:41:16.000Z</time>
      </trkpt>
      <trkpt lat="42.3505020003" lon="-79.3110999981">
        <ele>400.959995</ele>
        <time>2021-09-01T08:41:22.000Z</time>
      </trkpt>
      <trkpt lat="42.350015" lon="-79.310859">
        <ele>402.099991</ele>
        <time>2021-09-01T08:41:28.000Z</time>
      </trkpt>
      <trkpt lat="42.349371" lon="-79.310671">
        <ele>403.270004</ele>
        <time>2021-09-01T08:41:35.000Z</time>
      </trkpt>
      <trkpt lat="42.3485493336" lon="-79.3105269964">
        <ele>404.560007</ele>
        <time>2021-09-01T08:41:44.000Z</time>
      </trkpt>
      <trkpt lat="42.3477326669" lon="-79.3103959964">
        <ele>405.599996</ele>
        <time>2021-09-01T08:41:53.000Z</time>
      </trkpt>
      <trkpt lat="42.346926" lon="-79.310248">
        <ele>405.459993</ele>
        <time>2021-09-01T08:42:02.000Z</time>
      </trkpt>
      <trkpt lat="42.3460480002" lon="-79.3100629974">
        <ele>405.970003</ele>
        <time>2021-09-01T08:42:12.000Z</time>
      </trkpt>
      <trkpt lat="42.345193" lon="-79.309876">
        <ele>406.350009</ele>
        <time>2021-09-01T08:42:22.000Z</time>
      </trkpt>
      <trkpt lat="42.344736" lon="-79.309768">
        <ele>406.919991</ele>
        <time>2021-09-01T08:42:27.000Z</time>
      </trkpt>
      <trkpt lat="42.34438" lon="-79.309675">
        <ele>407.369993</ele>
        <time>2021-09-01T08:42:31.000Z</time>
      </trkpt>
      <trkpt lat="42.344348" lon="-79.309859">
        <ele>406.950006</ele>
        <time>2021-09-01T08:42:33.000Z</time>
      </trkpt>
      <trkpt lat="42.344195" lon="-79.310261">
        <ele>406.639997</ele>
        <time>2021-09-01T08:42:37.000Z</time>
      </trkpt>
      <trkpt lat="42.344065" lon="-79.310516">
        <ele>406.060008</ele>
        <time>2021-09-01T08:42:40.000Z</time>
      </trkpt>
      <trkpt lat="42.344054" lon="-79.310506">
        <ele>406.040005</ele>
        <time>2021-09-01T08:42:40.000Z</time>
      </trkpt>
      <trkpt lat="42.343677" lon="-79.311152">
        <ele>404.079995</ele>
        <time>2021-09-01T08:42:47.000Z</time>
      </trkpt>
      <trkpt lat="42.343852" lon="-79.311338">
        <ele>403.599992</ele>
        <time>2021-09-01T08:42:49.000Z</time>
      </trkpt>
      <trkpt lat="42.3445200004" lon="-79.3116559966">
        <ele>402.140005</ele>
        <time>2021-09-01T08:42:57.000Z</time>
      </trkpt>
      <trkpt lat="42.34517" lon="-79.311976">
        <ele>402.519994</ele>
        <time>2021-09-01T08:43:05.000Z</time>
      </trkpt>
    </trkseg>
  </trk>
</gpx>

<!--
Performance optimized by W3 Total Cache. Learn more: https://www.boldgrid.com/w3-total-cache/?utm_source=w3tc&utm_medium=footer_comment&utm_campaign=free_plugin

Page Caching using Disk: Enhanced{w3tc_pagecache_reject_reason} 

Served from: www.aquabike.world @ 2026-05-10 19:06:52 by W3 Total Cache
-->